Time;durP1;ratioP1;P1;durP2;ratioP2;P2;SDS_P1;SDS_P2;PMS_P1;PMS_P2;Temp;Humidity;BMP_temperature;BMP_pressure;BME280_temperature;BME280_humidity;BME280_pressure;Samples;Min_cycle;Max_cycle;Signal;HPM_P1;HPM_P2
2022/04/04 00:00:08;;;;;;;2.35;1.25;;;;;;;;;;7398216;19;20996;-80
2022/04/04 00:02:33;;;;;;;2.25;1.00;;;;;;;;;;7399665;19;20014;-80
2022/04/04 00:04:58;;;;;;;5.25;1.35;;;;;;;;;;7398924;19;20006;-80
2022/04/04 00:07:24;;;;;;;2.00;1.10;;;;;;;;;;7401064;19;20856;-80
2022/04/04 00:09:50;;;;;;;2.03;1.20;;;;;;;;;;7399029;19;20003;-80
2022/04/04 00:12:15;;;;;;;1.63;1.00;;;;;;;;;;7399796;19;19998;-79
2022/04/04 00:14:40;;;;;;;1.63;1.08;;;;;;;;;;7398125;19;20639;-80
2022/04/04 00:17:06;;;;;;;2.50;1.20;;;;;;;;;;7400796;19;19995;-80
2022/04/04 00:19:31;;;;;;;2.08;1.02;;;;;;;;;;7396704;19;20039;-80
2022/04/04 00:21:57;;;;;;;1.98;0.98;;;;;;;;;;7395808;19;20002;-79
2022/04/04 00:24:22;;;;;;;2.65;1.00;;;;;;;;;;7398679;19;20039;-80
2022/04/04 00:26:48;;;;;;;2.10;1.05;;;;;;;;;;7397707;19;20474;-80
2022/04/04 00:29:13;;;;;;;2.40;1.20;;;;;;;;;;7398207;19;20014;-79
2022/04/04 00:31:38;;;;;;;2.42;1.30;;;;;;;;;;7392417;19;20014;-79
2022/04/04 00:34:04;;;;;;;2.85;1.10;;;;;;;;;;7398184;19;20011;-79
2022/04/04 00:36:29;;;;;;;1.90;1.02;;;;;;;;;;7393240;19;20019;-79
2022/04/04 00:38:54;;;;;;;3.60;1.02;;;;;;;;;;7394005;19;20070;-79
2022/04/04 00:41:20;;;;;;;1.42;0.80;;;;;;;;;;7395950;19;20011;-79
2022/04/04 00:43:45;;;;;;;2.30;1.00;;;;;;;;;;7395161;19;20003;-79
2022/04/04 00:46:11;;;;;;;1.38;0.95;;;;;;;;;;7403160;19;20031;-79
2022/04/04 00:48:37;;;;;;;2.60;1.30;;;;;;;;;;7408466;19;20157;-79
2022/04/04 00:51:03;;;;;;;1.80;1.02;;;;;;;;;;7409195;19;20090;-79
2022/04/04 00:53:30;;;;;;;1.38;1.08;;;;;;;;;;7407132;19;20083;-79
2022/04/04 00:55:55;;;;;;;1.92;1.10;;;;;;;;;;7394462;19;20020;-79
2022/04/04 00:58:21;;;;;;;2.22;1.00;;;;;;;;;;7409794;19;20006;-79
2022/04/04 01:00:48;;;;;;;2.20;0.98;;;;;;;;;;7400406;19;20015;-79
2022/04/04 01:03:16;;;;;;;2.88;1.20;;;;;;;;;;7395054;19;20020;-79
2022/04/04 01:05:44;;;;;;;2.17;1.10;;;;;;;;;;7392357;19;20010;-79
2022/04/04 01:08:12;;;;;;;2.40;1.10;;;;;;;;;;7392275;19;20023;-79
2022/04/04 01:10:38;;;;;;;1.75;1.10;;;;;;;;;;7396278;19;20007;-80
2022/04/04 01:13:03;;;;;;;1.20;1.02;;;;;;;;;;7393248;19;20031;-79
2022/04/04 01:15:32;;;;;;;1.40;0.93;;;;;;;;;;7394337;19;20010;-79
2022/04/04 01:17:58;;;;;;;2.10;1.13;;;;;;;;;;7393183;19;19998;-79
2022/04/04 01:20:23;;;;;;;2.25;1.20;;;;;;;;;;7389983;19;20010;-79
2022/04/04 01:22:48;;;;;;;1.20;0.90;;;;;;;;;;7389317;19;20018;-79
2022/04/04 01:25:25;;;;;;;3.10;1.20;;;;;;;;;;7394451;19;20310;-79
2022/04/04 01:27:50;;;;;;;3.38;1.42;;;;;;;;;;7391580;19;20007;-79
2022/04/04 01:30:16;;;;;;;1.88;0.98;;;;;;;;;;7393805;19;20480;-79
2022/04/04 01:32:41;;;;;;;3.08;1.48;;;;;;;;;;7406870;19;20014;-79
2022/04/04 01:35:07;;;;;;;2.00;1.10;;;;;;;;;;7405728;19;20010;-79
2022/04/04 01:37:33;;;;;;;1.92;1.05;;;;;;;;;;7412010;19;20002;-79
2022/04/04 01:39:58;;;;;;;1.90;0.90;;;;;;;;;;7407216;19;20018;-79
2022/04/04 01:42:24;;;;;;;3.08;1.30;;;;;;;;;;7403321;19;20006;-79
2022/04/04 01:44:49;;;;;;;1.92;1.10;;;;;;;;;;7408577;19;20056;-79
2022/04/04 01:47:14;;;;;;;3.25;1.30;;;;;;;;;;7411935;19;20006;-79
2022/04/04 01:49:40;;;;;;;1.75;1.08;;;;;;;;;;7405099;19;20050;-79
2022/04/04 01:52:05;;;;;;;2.47;1.17;;;;;;;;;;7410489;19;20046;-79
2022/04/04 01:54:30;;;;;;;3.72;1.13;;;;;;;;;;7406769;19;20018;-78
2022/04/04 01:56:56;;;;;;;2.63;1.20;;;;;;;;;;7408164;19;20026;-79
2022/04/04 01:59:22;;;;;;;2.17;1.05;;;;;;;;;;7406565;19;20033;-78
2022/04/04 02:01:47;;;;;;;4.18;1.50;;;;;;;;;;7409485;19;20007;-78
2022/04/04 02:04:13;;;;;;;2.13;1.20;;;;;;;;;;7410454;19;20010;-79
2022/04/04 02:06:39;;;;;;;1.67;1.00;;;;;;;;;;7409543;19;20018;-79
2022/04/04 02:09:05;;;;;;;1.67;1.13;;;;;;;;;;7406110;19;20101;-78
2022/04/04 02:11:30;;;;;;;2.13;1.10;;;;;;;;;;7408752;19;20028;-78
2022/04/04 02:13:57;;;;;;;1.83;1.20;;;;;;;;;;7408279;19;20671;-78
2022/04/04 02:16:23;;;;;;;2.28;1.23;;;;;;;;;;7406430;19;19999;-79
2022/04/04 02:18:48;;;;;;;2.67;1.30;;;;;;;;;;7405476;19;20536;-78
2022/04/04 02:21:13;;;;;;;1.88;1.20;;;;;;;;;;7408920;19;20449;-78
2022/04/04 02:23:39;;;;;;;1.23;0.98;;;;;;;;;;7406223;19;20011;-78
2022/04/04 02:26:04;;;;;;;2.30;1.25;;;;;;;;;;7407832;19;20273;-78
2022/04/04 02:28:30;;;;;;;5.20;1.30;;;;;;;;;;7408325;19;20039;-79
2022/04/04 02:30:56;;;;;;;1.25;1.00;;;;;;;;;;7408634;19;20013;-78
2022/04/04 02:33:22;;;;;;;2.17;1.38;;;;;;;;;;7406411;19;20459;-78
2022/04/04 02:35:50;;;;;;;2.70;1.10;;;;;;;;;;7410564;19;20030;-78
2022/04/04 02:38:16;;;;;;;2.08;1.10;;;;;;;;;;7411659;19;20010;-79
2022/04/04 02:40:42;;;;;;;3.88;1.52;;;;;;;;;;7413993;19;20703;-78
2022/04/04 02:43:08;;;;;;;3.42;1.20;;;;;;;;;;7409857;19;20010;-78
2022/04/04 02:45:35;;;;;;;5.72;1.20;;;;;;;;;;7414655;19;20011;-78
2022/04/04 02:48:00;;;;;;;2.05;1.15;;;;;;;;;;7410427;19;20061;-78
2022/04/04 02:50:27;;;;;;;2.20;1.20;;;;;;;;;;7409226;19;20014;-78
2022/04/04 02:52:53;;;;;;;1.55;1.20;;;;;;;;;;7409241;19;20003;-78
2022/04/04 02:58:02;;;;;;;2.88;1.23;;;;;;;;;;7412699;19;20029;-78
2022/04/04 03:00:27;;;;;;;2.47;1.30;;;;;;;;;;7409949;19;20561;-78
2022/04/04 03:02:54;;;;;;;2.28;1.20;;;;;;;;;;7410228;19;20369;-78
2022/04/04 03:05:19;;;;;;;2.55;1.20;;;;;;;;;;7404491;19;20436;-80
2022/04/04 03:07:45;;;;;;;1.33;0.93;;;;;;;;;;7405024;19;20014;-79
2022/04/04 03:10:13;;;;;;;3.25;1.13;;;;;;;;;;7404634;19;20007;-80
2022/04/04 03:12:50;;;;;;;7.25;2.85;;;;;;;;;;7401902;19;20006;-79
2022/04/04 03:15:21;;;;;;;5.15;2.00;;;;;;;;;;7403545;19;20010;-79
2022/04/04 03:17:55;;;;;;;3.53;1.80;;;;;;;;;;7402553;19;20474;-79
2022/04/04 03:20:22;;;;;;;3.13;1.45;;;;;;;;;;7402944;19;20003;-79
2022/04/04 03:22:50;;;;;;;2.30;1.35;;;;;;;;;;7402187;19;20014;-79
2022/04/04 03:25:17;;;;;;;2.78;1.23;;;;;;;;;;7405650;19;20021;-80
2022/04/04 03:27:43;;;;;;;3.00;1.50;;;;;;;;;;7402144;19;20010;-79
2022/04/04 03:30:15;;;;;;;3.78;1.30;;;;;;;;;;7400600;19;20011;-79
2022/04/04 03:32:41;;;;;;;3.10;1.70;;;;;;;;;;7398759;19;20014;-79
2022/04/04 03:35:07;;;;;;;2.50;1.30;;;;;;;;;;7403536;19;20007;-79
2022/04/04 03:37:33;;;;;;;3.00;1.60;;;;;;;;;;7403550;19;20105;-80
2022/04/04 03:39:59;;;;;;;2.67;1.50;;;;;;;;;;7402071;19;20003;-80
2022/04/04 03:42:24;;;;;;;2.78;1.40;;;;;;;;;;7404000;19;20078;-79
2022/04/04 03:44:49;;;;;;;3.45;1.25;;;;;;;;;;7403750;19;20009;-79
2022/04/04 03:47:15;;;;;;;4.10;1.60;;;;;;;;;;7402793;19;20018;-79
2022/04/04 03:49:40;;;;;;;5.28;1.85;;;;;;;;;;7400076;19;20013;-79
2022/04/04 03:52:06;;;;;;;2.55;1.40;;;;;;;;;;7405029;19;20085;-79
2022/04/04 03:54:32;;;;;;;3.72;1.70;;;;;;;;;;7402713;19;19999;-79
2022/04/04 03:56:57;;;;;;;3.05;1.40;;;;;;;;;;7405997;19;20014;-79
2022/04/04 03:59:23;;;;;;;3.05;1.33;;;;;;;;;;7402549;19;20018;-79
2022/04/04 04:01:49;;;;;;;2.65;1.20;;;;;;;;;;7403867;19;20014;-79
2022/04/04 04:04:14;;;;;;;2.75;1.20;;;;;;;;;;7403551;19;20043;-80
2022/04/04 04:06:39;;;;;;;1.95;1.13;;;;;;;;;;7401553;19;20014;-79
2022/04/04 04:09:05;;;;;;;2.08;1.13;;;;;;;;;;7402947;19;20006;-79
2022/04/04 04:11:30;;;;;;;3.13;1.48;;;;;;;;;;7398518;19;20018;-79
2022/04/04 04:13:55;;;;;;;3.92;1.50;;;;;;;;;;7400594;19;19998;-79
2022/04/04 04:16:23;;;;;;;5.07;1.90;;;;;;;;;;7402289;19;20070;-78
2022/04/04 04:18:48;;;;;;;3.60;1.73;;;;;;;;;;7401412;19;20003;-79
2022/04/04 04:21:14;;;;;;;6.30;2.40;;;;;;;;;;7402949;19;20045;-78
2022/04/04 04:23:40;;;;;;;3.63;2.03;;;;;;;;;;7398141;19;20046;-78
2022/04/04 04:26:07;;;;;;;3.03;1.60;;;;;;;;;;7402794;19;20228;-78
2022/04/04 04:28:33;;;;;;;4.88;1.40;;;;;;;;;;7400283;19;20467;-78
2022/04/04 04:30:59;;;;;;;3.03;1.38;;;;;;;;;;7400701;19;20077;-78
2022/04/04 04:33:25;;;;;;;2.47;1.33;;;;;;;;;;7399951;19;20050;-79
2022/04/04 04:35:51;;;;;;;2.47;1.23;;;;;;;;;;7399670;19;20023;-79
2022/04/04 04:38:16;;;;;;;3.15;1.25;;;;;;;;;;7399196;19;20074;-78
2022/04/04 04:40:42;;;;;;;5.75;1.38;;;;;;;;;;7398793;19;20480;-78
2022/04/04 04:43:07;;;;;;;3.00;1.20;;;;;;;;;;7399830;19;20410;-78
2022/04/04 04:45:33;;;;;;;2.38;1.13;;;;;;;;;;7399520;19;20014;-78
2022/04/04 04:47:58;;;;;;;2.65;1.27;;;;;;;;;;7402747;19;20062;-78
2022/04/04 04:50:25;;;;;;;2.70;1.40;;;;;;;;;;7399613;19;20115;-78
2022/04/04 04:52:50;;;;;;;3.25;1.42;;;;;;;;;;7393326;19;20007;-78
2022/04/04 04:55:18;;;;;;;2.80;1.40;;;;;;;;;;7392122;19;20010;-77
2022/04/04 04:57:44;;;;;;;3.58;1.20;;;;;;;;;;7392100;19;20016;-77
2022/04/04 05:00:12;;;;;;;1.98;1.15;;;;;;;;;;7389898;19;19999;-77
2022/04/04 05:02:37;;;;;;;3.20;1.20;;;;;;;;;;7397893;19;20030;-78
2022/04/04 05:05:04;;;;;;;2.67;1.55;;;;;;;;;;7396036;19;20002;-79
2022/04/04 05:07:30;;;;;;;3.65;1.60;;;;;;;;;;7402827;19;20484;-78
2022/04/04 05:09:55;;;;;;;2.95;1.17;;;;;;;;;;7398878;19;20010;-78
2022/04/04 05:12:20;;;;;;;2.80;1.35;;;;;;;;;;7398180;19;19999;-78
2022/04/04 05:14:47;;;;;;;2.22;1.33;;;;;;;;;;7394791;19;20026;-79
2022/04/04 05:17:12;;;;;;;3.50;1.85;;;;;;;;;;7402756;19;20108;-78
2022/04/04 05:19:38;;;;;;;2.97;1.63;;;;;;;;;;7393409;19;20105;-78
2022/04/04 05:22:03;;;;;;;3.88;1.85;;;;;;;;;;7397799;19;20011;-78
2022/04/04 05:24:29;;;;;;;4.93;1.77;;;;;;;;;;7395079;19;20027;-79
2022/04/04 05:26:56;;;;;;;4.20;1.40;;;;;;;;;;7397500;19;20083;-78
2022/04/04 05:29:22;;;;;;;3.70;1.58;;;;;;;;;;7397417;19;20022;-78
2022/04/04 05:31:47;;;;;;;2.17;1.58;;;;;;;;;;7395196;19;20358;-78
2022/04/04 05:34:12;;;;;;;2.75;1.40;;;;;;;;;;7397684;19;20113;-78
2022/04/04 05:36:39;;;;;;;3.35;1.70;;;;;;;;;;7393409;19;20009;-78
2022/04/04 05:39:05;;;;;;;3.13;1.50;;;;;;;;;;7394259;19;20018;-79
2022/04/04 05:41:31;;;;;;;4.63;1.77;;;;;;;;;;7396455;19;20118;-78
2022/04/04 05:43:57;;;;;;;3.35;1.67;;;;;;;;;;7392318;19;20075;-79
2022/04/04 05:46:23;;;;;;;4.45;2.20;;;;;;;;;;7396522;19;20148;-78
2022/04/04 05:48:49;;;;;;;5.53;1.90;;;;;;;;;;7394284;19;20401;-77
2022/04/04 05:51:15;;;;;;;4.90;2.08;;;;;;;;;;7394101;19;20481;-78
2022/04/04 05:53:40;;;;;;;3.70;1.80;;;;;;;;;;7391152;19;20058;-77
2022/04/04 05:56:06;;;;;;;3.28;1.70;;;;;;;;;;7393953;19;20014;-78
2022/04/04 05:58:31;;;;;;;2.55;1.42;;;;;;;;;;7397561;19;20407;-77
2022/04/04 06:00:57;;;;;;;3.85;1.65;;;;;;;;;;7388338;19;20358;-78
2022/04/04 06:03:23;;;;;;;4.10;1.73;;;;;;;;;;7383066;19;19994;-79
2022/04/04 06:05:49;;;;;;;4.22;2.20;;;;;;;;;;7390886;19;20023;-77
2022/04/04 06:08:18;;;;;;;4.30;1.80;;;;;;;;;;7391560;19;20011;-77
2022/04/04 06:10:47;;;;;;;4.00;2.00;;;;;;;;;;7388500;19;19998;-76
2022/04/04 06:13:16;;;;;;;5.18;1.98;;;;;;;;;;7384395;19;20010;-76
2022/04/04 06:15:42;;;;;;;6.03;2.10;;;;;;;;;;7390346;19;20014;-76
2022/04/04 06:18:08;;;;;;;3.50;1.48;;;;;;;;;;7389092;19;20466;-77
2022/04/04 06:20:34;;;;;;;5.20;1.92;;;;;;;;;;7396559;19;20015;-77
2022/04/04 06:22:59;;;;;;;5.90;1.80;;;;;;;;;;7406443;19;20335;-77
2022/04/04 06:25:25;;;;;;;4.43;2.15;;;;;;;;;;7412603;19;20039;-78
2022/04/04 06:27:50;;;;;;;4.07;2.35;;;;;;;;;;7408374;19;20505;-76
2022/04/04 06:30:16;;;;;;;9.27;3.97;;;;;;;;;;7401297;19;20364;-77
2022/04/04 06:32:44;;;;;;;4.75;2.53;;;;;;;;;;7394119;19;20021;-77
2022/04/04 06:35:14;;;;;;;3.78;2.00;;;;;;;;;;7387304;19;20753;-76
2022/04/04 06:37:39;;;;;;;3.80;2.40;;;;;;;;;;7388632;19;20431;-77
2022/04/04 06:40:05;;;;;;;12.90;6.10;;;;;;;;;;7390825;19;20011;-77
2022/04/04 06:42:42;;;;;;;17.40;8.23;;;;;;;;;;7388314;19;20135;-78
2022/04/04 06:45:09;;;;;;;20.02;8.38;;;;;;;;;;7392997;19;20010;-77
2022/04/04 06:47:34;;;;;;;13.07;5.90;;;;;;;;;;7388375;19;19999;-77
2022/04/04 06:50:00;;;;;;;6.95;3.63;;;;;;;;;;7388024;19;20384;-77
2022/04/04 06:52:26;;;;;;;10.35;5.40;;;;;;;;;;7387002;19;20007;-77
2022/04/04 06:54:53;;;;;;;5.18;3.42;;;;;;;;;;7389300;19;20009;-77
2022/04/04 06:57:19;;;;;;;3.90;2.40;;;;;;;;;;7392576;19;20369;-77
2022/04/04 06:59:45;;;;;;;2.97;1.90;;;;;;;;;;7389312;19;19999;-77
2022/04/04 07:02:10;;;;;;;3.30;2.00;;;;;;;;;;7387440;19;20007;-77
2022/04/04 07:04:37;;;;;;;3.95;1.77;;;;;;;;;;7392420;19;20006;-77
2022/04/04 07:07:03;;;;;;;3.15;1.60;;;;;;;;;;7390005;19;20079;-77
2022/04/04 07:09:29;;;;;;;3.03;1.80;;;;;;;;;;7385876;19;20062;-77
2022/04/04 07:11:54;;;;;;;3.40;1.77;;;;;;;;;;7389284;19;20010;-77
2022/04/04 07:14:19;;;;;;;4.90;2.50;;;;;;;;;;7392502;19;20013;-77
2022/04/04 07:16:44;;;;;;;14.32;2.38;;;;;;;;;;7390990;19;20014;-77
2022/04/04 07:19:15;;;;;;;3.80;2.00;;;;;;;;;;7386402;19;20014;-77
2022/04/04 07:21:41;;;;;;;3.72;1.60;;;;;;;;;;7396418;19;20110;-77
2022/04/04 07:24:07;;;;;;;2.78;1.50;;;;;;;;;;7394529;19;20006;-77
2022/04/04 07:26:32;;;;;;;3.92;2.00;;;;;;;;;;7394886;19;20006;-77
2022/04/04 07:28:57;;;;;;;3.20;1.85;;;;;;;;;;7396733;19;20479;-77
2022/04/04 07:31:23;;;;;;;4.30;1.90;;;;;;;;;;7398715;19;20006;-79
2022/04/04 07:33:48;;;;;;;4.18;1.48;;;;;;;;;;7396883;19;20523;-78
2022/04/04 07:36:13;;;;;;;3.45;1.90;;;;;;;;;;7398348;19;20525;-78
2022/04/04 07:38:39;;;;;;;5.20;1.95;;;;;;;;;;7398369;19;20041;-78
2022/04/04 07:41:04;;;;;;;3.72;1.85;;;;;;;;;;7402974;19;20027;-78
2022/04/04 07:43:29;;;;;;;3.03;1.33;;;;;;;;;;7399169;19;20010;-78
2022/04/04 07:45:55;;;;;;;3.83;1.90;;;;;;;;;;7401314;19;20740;-78
2022/04/04 07:48:20;;;;;;;2.33;1.30;;;;;;;;;;7399167;19;20003;-77
2022/04/04 07:50:46;;;;;;;3.35;1.88;;;;;;;;;;7396675;19;20023;-77
2022/04/04 07:53:12;;;;;;;2.45;1.60;;;;;;;;;;7396860;19;20489;-78
2022/04/04 07:55:38;;;;;;;2.88;1.67;;;;;;;;;;7395157;19;20034;-77
2022/04/04 07:58:04;;;;;;;2.85;2.00;;;;;;;;;;7393338;19;20073;-77
2022/04/04 08:00:29;;;;;;;4.43;2.38;;;;;;;;;;7391791;19;20034;-77
2022/04/04 08:02:55;;;;;;;2.88;1.80;;;;;;;;;;7392484;19;20030;-77
2022/04/04 08:05:21;;;;;;;3.53;1.60;;;;;;;;;;7388423;19;20006;-77
2022/04/04 08:07:48;;;;;;;3.55;1.27;;;;;;;;;;7397276;19;20031;-78
2022/04/04 08:10:15;;;;;;;3.00;1.50;;;;;;;;;;7398101;19;20013;-78
2022/04/04 08:12:40;;;;;;;3.47;1.58;;;;;;;;;;7395051;19;20010;-78
2022/04/04 08:15:06;;;;;;;3.17;1.60;;;;;;;;;;7394277;19;20002;-77
2022/04/04 08:17:32;;;;;;;3.05;1.50;;;;;;;;;;7398864;19;20010;-77
2022/04/04 08:19:57;;;;;;;1.90;1.17;;;;;;;;;;7403905;19;20002;-78
2022/04/04 08:22:22;;;;;;;3.55;1.42;;;;;;;;;;7395178;19;20010;-77
2022/04/04 08:24:49;;;;;;;1.98;1.33;;;;;;;;;;7400243;19;20019;-78
2022/04/04 08:27:14;;;;;;;4.05;1.65;;;;;;;;;;7394746;19;20466;-77
2022/04/04 08:29:40;;;;;;;2.90;1.10;;;;;;;;;;7393772;19;20070;-77
2022/04/04 08:32:06;;;;;;;2.25;1.63;;;;;;;;;;7391097;19;20455;-77
2022/04/04 08:34:32;;;;;;;2.97;1.58;;;;;;;;;;7393129;19;20042;-78
2022/04/04 08:36:57;;;;;;;2.70;1.52;;;;;;;;;;7390271;19;20027;-77
2022/04/04 08:39:23;;;;;;;3.60;1.40;;;;;;;;;;7395400;19;20030;-77
2022/04/04 08:41:49;;;;;;;1.85;1.38;;;;;;;;;;7387153;19;21463;-76
2022/04/04 08:44:16;;;;;;;1.83;1.23;;;;;;;;;;7389216;19;20009;-78
2022/04/04 08:46:42;;;;;;;1.42;1.00;;;;;;;;;;7389843;19;20455;-77
2022/04/04 08:49:08;;;;;;;2.03;1.17;;;;;;;;;;7387328;19;20015;-78
2022/04/04 08:51:34;;;;;;;2.15;1.52;;;;;;;;;;7393651;19;20059;-78
2022/04/04 08:53:59;;;;;;;3.28;2.05;;;;;;;;;;7392715;19;20010;-78
2022/04/04 08:56:26;;;;;;;2.88;1.65;;;;;;;;;;7386116;19;20007;-77
2022/04/04 08:58:53;;;;;;;1.38;1.10;;;;;;;;;;7380156;19;21126;-77
2022/04/04 09:01:19;;;;;;;3.03;1.35;;;;;;;;;;7386119;19;20010;-77
2022/04/04 09:03:49;;;;;;;2.58;0.98;;;;;;;;;;7384586;19;20010;-78
2022/04/04 09:06:16;;;;;;;2.20;1.25;;;;;;;;;;7388988;19;20007;-78
2022/04/04 09:08:46;;;;;;;2.60;1.58;;;;;;;;;;7390629;19;20010;-77
2022/04/04 09:11:13;;;;;;;1.50;1.23;;;;;;;;;;7389203;19;20010;-77
2022/04/04 09:13:39;;;;;;;2.03;1.30;;;;;;;;;;7390693;19;20127;-78
2022/04/04 09:16:06;;;;;;;4.10;1.90;;;;;;;;;;7390991;19;20042;-77
2022/04/04 09:18:37;;;;;;;2.72;1.40;;;;;;;;;;7389797;19;20017;-75
2022/04/04 09:21:10;;;;;;;1.88;1.20;;;;;;;;;;7390954;19;20378;-75
2022/04/04 09:23:51;;;;;;;2.42;1.70;;;;;;;;;;7389550;19;20357;-78
2022/04/04 09:26:41;;;;;;;2.28;1.55;;;;;;;;;;7392955;19;20015;-77
2022/04/04 09:29:13;;;;;;;4.50;1.77;;;;;;;;;;7390517;19;20022;-76
2022/04/04 09:31:52;;;;;;;7.43;2.45;;;;;;;;;;7391179;19;20013;-77
2022/04/04 09:34:17;;;;;;;4.20;1.90;;;;;;;;;;7395357;19;20027;-76
2022/04/04 09:36:47;;;;;;;1.92;1.30;;;;;;;;;;7393671;19;20014;-78
2022/04/04 09:39:14;;;;;;;3.35;1.48;;;;;;;;;;7394150;19;20143;-78
2022/04/04 09:41:40;;;;;;;3.50;1.65;;;;;;;;;;7395424;19;20093;-75
2022/04/04 09:44:06;;;;;;;2.22;1.40;;;;;;;;;;7392413;19;20010;-76
2022/04/04 09:46:36;;;;;;;1.95;1.40;;;;;;;;;;7390945;19;20010;-78
2022/04/04 09:49:13;;;;;;;1.88;1.38;;;;;;;;;;7390564;19;20026;-75
2022/04/04 09:51:44;;;;;;;3.08;1.52;;;;;;;;;;7391667;19;20045;-77
2022/04/04 09:54:15;;;;;;;4.75;2.00;;;;;;;;;;7391845;19;20006;-77
2022/04/04 09:56:41;;;;;;;4.13;2.00;;;;;;;;;;7387367;19;20005;-76
2022/04/04 09:59:10;;;;;;;3.33;1.52;;;;;;;;;;7388939;19;20014;-77
2022/04/04 10:01:36;;;;;;;1.95;1.50;;;;;;;;;;7393623;19;20020;-78
2022/04/04 10:04:02;;;;;;;4.50;1.85;;;;;;;;;;7389109;19;20462;-77
2022/04/04 10:06:29;;;;;;;3.22;1.83;;;;;;;;;;7389410;19;20038;-77
2022/04/04 10:08:59;;;;;;;4.93;1.80;;;;;;;;;;7390920;19;20006;-75
2022/04/04 10:11:26;;;;;;;3.33;1.70;;;;;;;;;;7394468;19;20336;-78
2022/04/04 10:13:52;;;;;;;2.78;2.17;;;;;;;;;;7391558;19;20007;-77
2022/04/04 10:16:18;;;;;;;5.93;3.05;;;;;;;;;;7391661;19;19998;-78
2022/04/04 10:18:45;;;;;;;5.15;2.13;;;;;;;;;;7387487;19;20038;-78
2022/04/04 10:21:11;;;;;;;4.03;2.20;;;;;;;;;;7390145;19;20010;-78
2022/04/04 10:23:39;;;;;;;2.95;2.22;;;;;;;;;;7389211;19;20006;-78
2022/04/04 10:26:07;;;;;;;4.80;2.28;;;;;;;;;;7389635;19;20398;-78
2022/04/04 10:28:34;;;;;;;3.83;2.53;;;;;;;;;;7389237;19;20013;-75
2022/04/04 10:31:21;;;;;;;3.50;2.53;;;;;;;;;;7390925;19;20368;-76
2022/04/04 10:33:47;;;;;;;4.40;2.70;;;;;;;;;;7388051;19;20032;-77
2022/04/04 10:36:20;;;;;;;5.57;2.75;;;;;;;;;;7389563;19;20014;-77
2022/04/04 10:38:49;;;;;;;3.50;2.78;;;;;;;;;;7389310;19;20077;-76
2022/04/04 10:41:21;;;;;;;6.22;2.78;;;;;;;;;;7390746;19;20007;-75
2022/04/04 10:43:51;;;;;;;3.45;2.30;;;;;;;;;;7392772;19;20035;-76
2022/04/04 10:46:18;;;;;;;4.45;2.35;;;;;;;;;;7395800;19;20232;-77
2022/04/04 10:48:54;;;;;;;3.80;2.88;;;;;;;;;;7393692;19;20490;-76
2022/04/04 10:51:31;;;;;;;5.20;2.60;;;;;;;;;;7390267;19;20036;-75
2022/04/04 10:54:00;;;;;;;8.20;3.47;;;;;;;;;;7388142;19;20031;-76
2022/04/04 10:56:39;;;;;;;6.03;3.28;;;;;;;;;;7392914;19;20051;-77
2022/04/04 10:59:16;;;;;;;3.72;2.90;;;;;;;;;;7394174;19;20021;-76
2022/04/04 11:01:53;;;;;;;4.68;2.90;;;;;;;;;;7394568;19;20390;-77
2022/04/04 11:04:36;;;;;;;4.10;2.92;;;;;;;;;;7395602;19;20006;-76
2022/04/04 11:09:53;;;;;;;5.15;3.30;;;;;;;;;;7396881;19;20409;-76
2022/04/04 11:12:22;;;;;;;4.90;3.03;;;;;;;;;;7395257;19;20050;-77
2022/04/04 11:14:54;;;;;;;6.00;3.42;;;;;;;;;;7393168;19;20451;-75
2022/04/04 11:17:29;;;;;;;4.75;3.05;;;;;;;;;;7395154;19;20625;-77
2022/04/04 11:20:31;;;;;;;;;;;;;;;;;;7396114;19;20477;-77
2022/04/04 11:23:04;;;;;;;5.15;2.92;;;;;;;;;;7394687;19;19990;-77
2022/04/04 11:25:37;;;;;;;5.35;3.50;;;;;;;;;;7400036;19;20027;-77
2022/04/04 11:28:05;;;;;;;4.82;3.15;;;;;;;;;;7397603;19;20032;-77
2022/04/04 11:30:31;;;;;;;5.53;3.40;;;;;;;;;;7402120;19;20361;-78
2022/04/04 11:32:57;;;;;;;6.93;3.90;;;;;;;;;;7399651;19;20125;-77
2022/04/04 11:35:30;;;;;;;4.10;3.03;;;;;;;;;;7396901;19;20018;-77
2022/04/04 11:38:00;;;;;;;4.20;2.85;;;;;;;;;;7395832;19;20014;-76
2022/04/04 11:40:34;;;;;;;7.07;3.20;;;;;;;;;;7394629;19;20021;-77
2022/04/04 11:43:02;;;;;;;6.35;3.50;;;;;;;;;;7397102;19;20384;-79
2022/04/04 11:45:33;;;;;;;4.88;3.30;;;;;;;;;;7402084;19;20027;-77
2022/04/04 11:48:04;;;;;;;4.95;3.60;;;;;;;;;;7399409;19;20015;-77
2022/04/04 11:50:32;;;;;;;7.82;3.75;;;;;;;;;;7399805;19;20001;-78
2022/04/04 11:53:00;;;;;;;5.07;3.17;;;;;;;;;;7401271;19;20006;-77
2022/04/04 11:55:27;;;;;;;5.82;3.30;;;;;;;;;;7399949;19;20010;-77
2022/04/04 11:58:12;;;;;;;6.15;3.63;;;;;;;;;;7402381;19;20082;-78
2022/04/04 12:00:39;;;;;;;6.45;3.83;;;;;;;;;;7395884;19;20010;-77
2022/04/04 12:03:10;;;;;;;5.40;3.95;;;;;;;;;;7394423;19;20014;-77
2022/04/04 12:05:47;;;;;;;4.95;3.53;;;;;;;;;;7398159;19;20010;-77
2022/04/04 12:08:13;;;;;;;5.22;3.55;;;;;;;;;;7402026;19;20010;-77
2022/04/04 12:10:40;;;;;;;4.95;3.50;;;;;;;;;;7408221;19;20084;-77
2022/04/04 12:13:10;;;;;;;5.00;3.80;;;;;;;;;;7404512;19;20111;-77
2022/04/04 12:15:37;;;;;;;5.78;3.70;;;;;;;;;;7403751;19;20035;-78
2022/04/04 12:18:04;;;;;;;5.25;3.45;;;;;;;;;;7406422;19;20024;-78
2022/04/04 12:20:43;;;;;;;6.15;3.95;;;;;;;;;;7403047;19;20038;-75
2022/04/04 12:25:58;;;;;;;7.03;3.50;;;;;;;;;;7405448;19;20030;-78
2022/04/04 12:28:26;;;;;;;4.78;3.50;;;;;;;;;;7396244;19;20035;-76
2022/04/04 12:30:52;;;;;;;9.65;4.57;;;;;;;;;;7397544;19;20046;-77
2022/04/04 12:33:18;;;;;;;6.85;4.20;;;;;;;;;;7397728;19;20323;-77
2022/04/04 12:35:46;;;;;;;6.45;3.40;;;;;;;;;;7397662;19;20122;-77
2022/04/04 12:38:24;;;;;;;4.45;3.40;;;;;;;;;;7394337;19;20085;-77
2022/04/04 12:41:13;;;;;;;5.35;3.35;;;;;;;;;;7398180;19;20010;-77
2022/04/04 12:43:41;;;;;;;7.75;3.78;;;;;;;;;;7393239;19;19999;-78
2022/04/04 12:46:28;;;;;;;5.90;3.53;;;;;;;;;;7396212;19;20003;-77
2022/04/04 12:48:55;;;;;;;5.38;3.70;;;;;;;;;;7397735;19;20002;-77
2022/04/04 12:51:29;;;;;;;7.47;4.22;;;;;;;;;;7394607;19;20366;-77
2022/04/04 12:53:56;;;;;;;5.28;3.60;;;;;;;;;;7392641;19;20002;-77
2022/04/04 12:56:21;;;;;;;6.18;3.97;;;;;;;;;;7392488;19;20014;-77
2022/04/04 12:59:07;;;;;;;6.38;3.67;;;;;;;;;;7392834;19;20018;-76
2022/04/04 13:01:33;;;;;;;4.85;3.90;;;;;;;;;;7394520;19;20016;-76
2022/04/04 13:03:59;;;;;;;5.47;3.75;;;;;;;;;;7388941;19;20021;-77
2022/04/04 13:06:29;;;;;;;5.07;3.90;;;;;;;;;;7393162;19;20003;-77
2022/04/04 13:08:55;;;;;;;4.90;3.60;;;;;;;;;;7389343;19;20017;-76
2022/04/04 13:11:22;;;;;;;4.25;3.25;;;;;;;;;;7394571;19;20377;-77
2022/04/04 13:14:00;;;;;;;6.25;3.42;;;;;;;;;;7405435;19;20036;-76
2022/04/04 13:16:31;;;;;;;5.60;3.67;;;;;;;;;;7400005;19;20006;-76
2022/04/04 13:18:57;;;;;;;5.97;3.65;;;;;;;;;;7401954;19;20014;-77
2022/04/04 13:21:22;;;;;;;5.40;3.30;;;;;;;;;;7402952;19;20010;-77
2022/04/04 13:23:47;;;;;;;4.80;3.17;;;;;;;;;;7395515;19;20023;-75
2022/04/04 13:26:13;;;;;;;6.55;4.10;;;;;;;;;;7393221;19;20014;-76
2022/04/04 13:28:38;;;;;;;7.18;4.45;;;;;;;;;;7389884;19;20005;-75
2022/04/04 13:31:03;;;;;;;6.43;4.03;;;;;;;;;;7390560;19;20058;-76
2022/04/04 13:33:29;;;;;;;6.35;3.70;;;;;;;;;;7389593;19;20010;-76
2022/04/04 13:35:54;;;;;;;6.93;4.28;;;;;;;;;;7391817;19;20007;-76
2022/04/04 13:38:19;;;;;;;5.35;3.70;;;;;;;;;;7389737;19;20016;-76
2022/04/04 13:40:45;;;;;;;5.18;3.70;;;;;;;;;;7393225;19;20002;-76
2022/04/04 13:43:10;;;;;;;7.82;4.10;;;;;;;;;;7391226;19;20323;-76
2022/04/04 13:45:35;;;;;;;9.52;4.80;;;;;;;;;;7388030;19;20013;-76
2022/04/04 13:48:02;;;;;;;6.50;4.25;;;;;;;;;;7393067;19;19990;-77
2022/04/04 13:50:27;;;;;;;7.40;4.20;;;;;;;;;;7396980;19;20018;-76
2022/04/04 13:52:52;;;;;;;6.45;4.07;;;;;;;;;;7388575;19;20030;-75
2022/04/04 13:55:18;;;;;;;6.20;3.63;;;;;;;;;;7391801;19;20010;-75
2022/04/04 13:57:43;;;;;;;8.70;4.75;;;;;;;;;;7390624;19;20339;-75
2022/04/04 14:00:09;;;;;;;8.40;3.95;;;;;;;;;;7388396;19;20007;-75
2022/04/04 14:02:40;;;;;;;5.35;4.07;;;;;;;;;;7389176;19;20019;-75
2022/04/04 14:05:07;;;;;;;6.13;4.05;;;;;;;;;;7390558;19;20032;-75
2022/04/04 14:07:32;;;;;;;4.95;3.95;;;;;;;;;;7392145;19;20007;-76
2022/04/04 14:09:59;;;;;;;5.55;3.90;;;;;;;;;;7389340;19;20002;-75
2022/04/04 14:12:24;;;;;;;4.68;3.63;;;;;;;;;;7388122;19;20098;-75
2022/04/04 14:14:50;;;;;;;7.20;4.22;;;;;;;;;;7390697;19;20382;-75
2022/04/04 14:17:17;;;;;;;8.55;4.78;;;;;;;;;;7393255;19;20314;-75
2022/04/04 14:19:43;;;;;;;10.52;4.00;;;;;;;;;;7390095;19;20010;-76
2022/04/04 14:22:09;;;;;;;5.63;4.20;;;;;;;;;;7392303;19;20363;-75
2022/04/04 14:24:35;;;;;;;5.90;4.10;;;;;;;;;;7385576;19;20010;-75
2022/04/04 14:27:00;;;;;;;5.15;3.92;;;;;;;;;;7390307;19;20014;-76
2022/04/04 14:29:25;;;;;;;5.22;4.05;;;;;;;;;;7385191;19;20015;-76
2022/04/04 14:31:52;;;;;;;8.95;4.20;;;;;;;;;;7387508;19;20683;-75
2022/04/04 14:34:19;;;;;;;7.85;4.88;;;;;;;;;;7392057;19;19994;-76
2022/04/04 14:36:47;;;;;;;7.80;4.80;;;;;;;;;;7389387;19;20110;-77
2022/04/04 14:39:13;;;;;;;7.20;4.72;;;;;;;;;;7389884;19;20018;-78
2022/04/04 14:41:39;;;;;;;5.85;4.45;;;;;;;;;;7394151;19;20074;-77
2022/04/04 14:44:04;;;;;;;6.53;4.53;;;;;;;;;;7392386;19;20010;-77
2022/04/04 14:46:30;;;;;;;5.85;4.18;;;;;;;;;;7390269;19;20007;-77
2022/04/04 14:48:56;;;;;;;6.03;4.22;;;;;;;;;;7390188;19;20128;-78
2022/04/04 14:51:21;;;;;;;8.23;4.60;;;;;;;;;;7393954;19;20099;-77